Westfield, Pennsylvania
Current Conditions -  °F | °C
As of 9:35 PM on Tuesday 21 Oct 2014 (Local Time) from KN38 Reporting Station
Overcast Overcast  
Wind Chill: 43°   Ceiling: 2400
Heat Index: 48°   Visibility: 7mi
Dew Point: 46°   Wind: 12mph
Humidity: 93%   Direction: 360°N
Pressure: 29.97"   Gusts: NA
Location:  41.92°N, 77.54°W
Report Text: KN38 220135Z AUTO 36010KT 7SM SCT012 BKN024 OVC028 09/08 A2997 RMK AO2
Loading
Personal Weather Stations






























Interactive Weather Map
Tropical Storm Tracking
New forecast layout! Learn more

10-Day Weather Forecast

Advertisements
Track Severe Weather on mobile